<?xml version="1.0" encoding="UTF-8" standalone="no" ?>
<gpx xmlns="http://www.topografix.com/GPX/1/1" xmlns:xsi="http://www.w3.org/2001/XMLSchema-instance" xsi:schemaLocation="http://www.topografix.com/GPX/1/1 http://www.topografix.com/GPX/1/1/gpx.xsd" version="1.1" creator="VisuGPX - https://www.visugpx.com">
  <metadata>
    <name>VacancesDricouZoe</name>
  </metadata>
  <trk>
    <name><![CDATA[Journal actif: 2021-06-30 15:42]]></name>
    <trkseg>
      <trkpt lat="45.00647" lon="-1.19013">
        <ele>12.15</ele>
        <time>2021-06-30T17:42:52Z</time>
      </trkpt>
      <trkpt lat="45.00619" lon="-1.18973">
        <ele>10.23</ele>
        <time>2021-06-30T17:43:00Z</time>
      </trkpt>
      <trkpt lat="45.00616" lon="-1.18968">
        <ele>9.75</ele>
        <time>2021-06-30T17:43:01Z</time>
      </trkpt>
      <trkpt lat="45.00614" lon="-1.18965">
        <ele>9.75</ele>
        <time>2021-06-30T17:43:02Z</time>
      </trkpt>
      <trkpt lat="45.00614" lon="-1.1896">
        <ele>9.27</ele>
        <time>2021-06-30T17:43:03Z</time>
      </trkpt>
      <trkpt lat="45.00614" lon="-1.18955">
        <ele>8.79</ele>
        <time>2021-06-30T17:43:04Z</time>
      </trkpt>
      <trkpt lat="45.00614" lon="-1.1895">
        <ele>8.79</ele>
        <time>2021-06-30T17:43:05Z</time>
      </trkpt>
      <trkpt lat="45.00616" lon="-1.18945">
        <ele>8.31</ele>
        <time>2021-06-30T17:43:06Z</time>
      </trkpt>
      <trkpt lat="45.00644" lon="-1.18882">
        <ele>5.91</ele>
        <time>2021-06-30T17:43:19Z</time>
      </trkpt>
      <trkpt lat="45.00646" lon="-1.18879">
        <ele>5.91</ele>
        <time>2021-06-30T17:43:20Z</time>
      </trkpt>
      <trkpt lat="45.00652" lon="-1.18877">
        <ele>6.39</ele>
        <time>2021-06-30T17:43:21Z</time>
      </trkpt>
      <trkpt lat="45.00656" lon="-1.18879">
        <ele>6.39</ele>
        <time>2021-06-30T17:43:22Z</time>
      </trkpt>
      <trkpt lat="45.0066" lon="-1.18884">
        <ele>6.39</ele>
        <time>2021-06-30T17:43:23Z</time>
      </trkpt>
      <trkpt lat="45.00663" lon="-1.18889">
        <ele>6.39</ele>
        <time>2021-06-30T17:43:24Z</time>
      </trkpt>
      <trkpt lat="45.00666" lon="-1.18893">
        <ele>6.39</ele>
        <time>2021-06-30T17:43:25Z</time>
      </trkpt>
      <trkpt lat="45.00669" lon="-1.18898">
        <ele>6.39</ele>
        <time>2021-06-30T17:43:26Z</time>
      </trkpt>
      <trkpt lat="45.00672" lon="-1.18904">
        <ele>6.87</ele>
        <time>2021-06-30T17:43:27Z</time>
      </trkpt>
      <trkpt lat="45.00678" lon="-1.18917">
        <ele>6.87</ele>
        <time>2021-06-30T17:43:28Z</time>
      </trkpt>
      <trkpt lat="45.0072" lon="-1.19006">
        <ele>9.27</ele>
        <time>2021-06-30T17:43:43Z</time>
      </trkpt>
      <trkpt lat="45.00747" lon="-1.19084">
        <ele>6.87</ele>
        <time>2021-06-30T17:44:01Z</time>
      </trkpt>
      <trkpt lat="45.0073" lon="-1.19116">
        <ele>6.39</ele>
        <time>2021-06-30T17:44:11Z</time>
      </trkpt>
      <trkpt lat="45.00712" lon="-1.19161">
        <ele>3.98</ele>
        <time>2021-06-30T17:44:23Z</time>
      </trkpt>
      <trkpt lat="45.00715" lon="-1.19172">
        <ele>3.02</ele>
        <time>2021-06-30T17:44:25Z</time>
      </trkpt>
      <trkpt lat="45.00714" lon="-1.19178">
        <ele>2.54</ele>
        <time>2021-06-30T17:44:26Z</time>
      </trkpt>
      <trkpt lat="45.00712" lon="-1.19184">
        <ele>2.54</ele>
        <time>2021-06-30T17:44:27Z</time>
      </trkpt>
      <trkpt lat="45.00711" lon="-1.19191">
        <ele>2.54</ele>
        <time>2021-06-30T17:44:28Z</time>
      </trkpt>
      <trkpt lat="45.0071" lon="-1.19196">
        <ele>2.54</ele>
        <time>2021-06-30T17:44:29Z</time>
      </trkpt>
      <trkpt lat="45.00708" lon="-1.19201">
        <ele>2.54</ele>
        <time>2021-06-30T17:44:30Z</time>
      </trkpt>
      <trkpt lat="45.00706" lon="-1.19206">
        <ele>2.54</ele>
        <time>2021-06-30T17:44:31Z</time>
      </trkpt>
      <trkpt lat="45.00702" lon="-1.19208">
        <ele>2.54</ele>
        <time>2021-06-30T17:44:32Z</time>
      </trkpt>
      <trkpt lat="45.00681" lon="-1.19222">
        <ele>3.5</ele>
        <time>2021-06-30T17:44:40Z</time>
      </trkpt>
      <trkpt lat="45.00682" lon="-1.19227">
        <ele>3.02</ele>
        <time>2021-06-30T17:44:41Z</time>
      </trkpt>
      <trkpt lat="45.00683" lon="-1.19232">
        <ele>3.02</ele>
        <time>2021-06-30T17:44:42Z</time>
      </trkpt>
      <trkpt lat="45.00694" lon="-1.19299">
        <ele>1.58</ele>
        <time>2021-06-30T17:44:54Z</time>
      </trkpt>
      <trkpt lat="45.00692" lon="-1.19306">
        <ele>2.06</ele>
        <time>2021-06-30T17:44:55Z</time>
      </trkpt>
      <trkpt lat="45.00689" lon="-1.19307">
        <ele>1.58</ele>
        <time>2021-06-30T17:44:56Z</time>
      </trkpt>
      <trkpt lat="45.00686" lon="-1.19308">
        <ele>2.06</ele>
        <time>2021-06-30T17:44:57Z</time>
      </trkpt>
      <trkpt lat="45.00683" lon="-1.1931">
        <ele>2.54</ele>
        <time>2021-06-30T17:44:58Z</time>
      </trkpt>
      <trkpt lat="45.0068" lon="-1.19312">
        <ele>3.02</ele>
        <time>2021-06-30T17:44:59Z</time>
      </trkpt>
      <trkpt lat="45.00631" lon="-1.19347">
        <ele>3.5</ele>
        <time>2021-06-30T17:45:12Z</time>
      </trkpt>
      <trkpt lat="45.00627" lon="-1.19348">
        <ele>3.5</ele>
        <time>2021-06-30T17:45:13Z</time>
      </trkpt>
      <trkpt lat="45.006" lon="-1.19351">
        <ele>3.98</ele>
        <time>2021-06-30T17:45:19Z</time>
      </trkpt>
      <trkpt lat="45.00596" lon="-1.19352">
        <ele>3.98</ele>
        <time>2021-06-30T17:45:20Z</time>
      </trkpt>
      <trkpt lat="45.00591" lon="-1.19354">
        <ele>4.46</ele>
        <time>2021-06-30T17:45:21Z</time>
      </trkpt>
      <trkpt lat="45.00588" lon="-1.19357">
        <ele>4.46</ele>
        <time>2021-06-30T17:45:22Z</time>
      </trkpt>
      <trkpt lat="45.00584" lon="-1.1936">
        <ele>3.98</ele>
        <time>2021-06-30T17:45:23Z</time>
      </trkpt>
      <trkpt lat="45.0056" lon="-1.19379">
        <ele>5.42</ele>
        <time>2021-06-30T17:45:35Z</time>
      </trkpt>
      <trkpt lat="45.00558" lon="-1.19374">
        <ele>4.94</ele>
        <time>2021-06-30T17:45:36Z</time>
      </trkpt>
      <trkpt lat="45.00549" lon="-1.19357">
        <ele>4.46</ele>
        <time>2021-06-30T17:45:40Z</time>
      </trkpt>
      <trkpt lat="45.00499" lon="-1.19305">
        <ele>4.94</ele>
        <time>2021-06-30T17:45:55Z</time>
      </trkpt>
      <trkpt lat="45.00496" lon="-1.19306">
        <ele>4.94</ele>
        <time>2021-06-30T17:45:56Z</time>
      </trkpt>
      <trkpt lat="45.00493" lon="-1.19309">
        <ele>5.42</ele>
        <time>2021-06-30T17:45:57Z</time>
      </trkpt>
      <trkpt lat="45.00475" lon="-1.19327">
        <ele>7.83</ele>
        <time>2021-06-30T17:46:01Z</time>
      </trkpt>
      <trkpt lat="45.00475" lon="-1.19327">
        <ele>8.31</ele>
        <time>2021-06-30T17:46:02Z</time>
      </trkpt>
      <trkpt lat="45.0047" lon="-1.1933">
        <ele>8.31</ele>
        <time>2021-06-30T17:46:03Z</time>
      </trkpt>
      <trkpt lat="45.00407" lon="-1.19369">
        <ele>5.42</ele>
        <time>2021-06-30T17:46:16Z</time>
      </trkpt>
      <trkpt lat="45.00403" lon="-1.19372">
        <ele>4.94</ele>
        <time>2021-06-30T17:46:17Z</time>
      </trkpt>
      <trkpt lat="45.00398" lon="-1.19376">
        <ele>4.46</ele>
        <time>2021-06-30T17:46:18Z</time>
      </trkpt>
      <trkpt lat="45.00394" lon="-1.19379">
        <ele>4.46</ele>
        <time>2021-06-30T17:46:19Z</time>
      </trkpt>
      <trkpt lat="45.00385" lon="-1.19386">
        <ele>4.46</ele>
        <time>2021-06-30T17:46:20Z</time>
      </trkpt>
      <trkpt lat="45.00385" lon="-1.19386">
        <ele>4.46</ele>
        <time>2021-06-30T17:46:21Z</time>
      </trkpt>
      <trkpt lat="45.00339" lon="-1.19401">
        <ele>8.79</ele>
        <time>2021-06-30T17:46:34Z</time>
      </trkpt>
      <trkpt lat="45.00329" lon="-1.19397">
        <ele>8.31</ele>
        <time>2021-06-30T17:46:43Z</time>
      </trkpt>
      <trkpt lat="45.00301" lon="-1.19367">
        <ele>4.94</ele>
        <time>2021-06-30T17:46:57Z</time>
      </trkpt>
      <trkpt lat="45.00247" lon="-1.1935">
        <ele>3.5</ele>
        <time>2021-06-30T17:47:12Z</time>
      </trkpt>
      <trkpt lat="45.00234" lon="-1.19346">
        <ele>3.5</ele>
        <time>2021-06-30T17:47:24Z</time>
      </trkpt>
      <trkpt lat="45.00234" lon="-1.19346">
        <ele>2.54</ele>
        <time>2021-06-30T18:01:47Z</time>
      </trkpt>
    </trkseg>
  </trk>
</gpx>